sensor_id;sensor_type;location;lat;lon;timestamp;pressure;altitude;pressure_sealevel;temperature;humidity
21290;BME280;10804;48.988;2.408;2023-08-07T00:00:00;101241.75;;;19.59;58.06
21290;BME280;10804;48.988;2.408;2023-08-07T00:02:31;101235.56;;;19.59;58.24
21290;BME280;10804;48.988;2.408;2023-08-07T00:04:59;101242.69;;;19.58;58.02
21290;BME280;10804;48.988;2.408;2023-08-07T00:07:27;101247.09;;;19.58;58.12
21290;BME280;10804;48.988;2.408;2023-08-07T00:09:55;101242.75;;;19.57;58.10
21290;BME280;10804;48.988;2.408;2023-08-07T00:12:22;101247.19;;;19.56;58.12
21290;BME280;10804;48.988;2.408;2023-08-07T00:14:50;101236.78;;;19.53;58.25
21290;BME280;10804;48.988;2.408;2023-08-07T00:17:17;101244.78;;;19.52;58.23
21290;BME280;10804;48.988;2.408;2023-08-07T00:19:45;101252.56;;;19.55;58.11
21290;BME280;10804;48.988;2.408;2023-08-07T00:22:12;101248.31;;;19.52;58.12
21290;BME280;10804;48.988;2.408;2023-08-07T00:24:40;101251.78;;;19.53;58.17
21290;BME280;10804;48.988;2.408;2023-08-07T00:27:08;101254.53;;;19.51;58.23
21290;BME280;10804;48.988;2.408;2023-08-07T00:29:36;101248.44;;;19.49;58.19
21290;BME280;10804;48.988;2.408;2023-08-07T00:32:04;101255.53;;;19.49;58.19
21290;BME280;10804;48.988;2.408;2023-08-07T00:34:32;101249.38;;;19.48;58.26
21290;BME280;10804;48.988;2.408;2023-08-07T00:36:59;101258.34;;;19.46;58.40
21290;BME280;10804;48.988;2.408;2023-08-07T00:39:27;101258.44;;;19.44;58.30
21290;BME280;10804;48.988;2.408;2023-08-07T00:41:56;101248.69;;;19.45;58.16
21290;BME280;10804;48.988;2.408;2023-08-07T00:44:23;101254.09;;;19.43;58.34
21290;BME280;10804;48.988;2.408;2023-08-07T00:46:51;101248.00;;;19.41;58.25
21290;BME280;10804;48.988;2.408;2023-08-07T00:49:19;101254.31;;;19.39;58.30
21290;BME280;10804;48.988;2.408;2023-08-07T00:51:47;101257.91;;;19.38;58.34
21290;BME280;10804;48.988;2.408;2023-08-07T00:54:18;101263.19;;;19.38;58.33
21290;BME280;10804;48.988;2.408;2023-08-07T00:56:45;101262.41;;;19.36;58.29
21290;BME280;10804;48.988;2.408;2023-08-07T00:59:14;101257.19;;;19.34;58.23
21290;BME280;10804;48.988;2.408;2023-08-07T01:01:42;101258.13;;;19.33;58.45
21290;BME280;10804;48.988;2.408;2023-08-07T01:04:09;101259.16;;;19.31;58.43
21290;BME280;10804;48.988;2.408;2023-08-07T01:06:37;101253.97;;;19.29;58.39
21290;BME280;10804;48.988;2.408;2023-08-07T01:09:04;101246.97;;;19.28;58.37
21290;BME280;10804;48.988;2.408;2023-08-07T01:11:36;101252.41;;;19.25;58.34
21290;BME280;10804;48.988;2.408;2023-08-07T01:14:11;101252.34;;;19.27;58.37
21290;BME280;10804;48.988;2.408;2023-08-07T01:16:46;101241.94;;;19.24;58.40
21290;BME280;10804;48.988;2.408;2023-08-07T01:19:22;101241.13;;;19.22;58.43
21290;BME280;10804;48.988;2.408;2023-08-07T01:22:03;101243.00;;;19.20;58.47
21290;BME280;10804;48.988;2.408;2023-08-07T01:24:31;101229.47;;;19.09;58.57
21290;BME280;10804;48.988;2.408;2023-08-07T01:27:05;101250.16;;;19.18;58.38
21290;BME280;10804;48.988;2.408;2023-08-07T01:29:38;101246.69;;;19.16;58.49
21290;BME280;10804;48.988;2.408;2023-08-07T01:32:10;101252.94;;;19.15;58.49
21290;BME280;10804;48.988;2.408;2023-08-07T01:34:42;101220.28;;;18.99;58.40
21290;BME280;10804;48.988;2.408;2023-08-07T01:37:13;101243.41;;;19.12;58.61
21290;BME280;10804;48.988;2.408;2023-08-07T01:39:41;101223.75;;;19.01;58.65
21290;BME280;10804;48.988;2.408;2023-08-07T01:42:09;101240.06;;;19.09;58.56
21290;BME280;10804;48.988;2.408;2023-08-07T01:44:37;101248.00;;;19.09;58.59
21290;BME280;10804;48.988;2.408;2023-08-07T01:47:05;101242.25;;;19.01;58.52
21290;BME280;10804;48.988;2.408;2023-08-07T01:49:32;101241.13;;;19.05;58.65
21290;BME280;10804;48.988;2.408;2023-08-07T01:52:00;101240.38;;;19.03;58.68
21290;BME280;10804;48.988;2.408;2023-08-07T01:54:29;101241.31;;;19.02;58.53
21290;BME280;10804;48.988;2.408;2023-08-07T01:56:56;101241.38;;;19.00;58.62
21290;BME280;10804;48.988;2.408;2023-08-07T01:59:24;101243.16;;;19.00;58.70
21290;BME280;10804;48.988;2.408;2023-08-07T02:01:51;101240.69;;;18.97;58.80
21290;BME280;10804;48.988;2.408;2023-08-07T02:04:19;101240.69;;;18.97;58.68
21290;BME280;10804;48.988;2.408;2023-08-07T02:06:46;101240.84;;;18.94;58.59
21290;BME280;10804;48.988;2.408;2023-08-07T02:09:14;101244.41;;;18.93;58.74
21290;BME280;10804;48.988;2.408;2023-08-07T02:11:43;101228.19;;;18.83;58.88
21290;BME280;10804;48.988;2.408;2023-08-07T02:14:10;101238.66;;;18.85;58.85
21290;BME280;10804;48.988;2.408;2023-08-07T02:16:37;101247.28;;;18.88;58.79
21290;BME280;10804;48.988;2.408;2023-08-07T02:19:07;101255.31;;;18.87;58.91
21290;BME280;10804;48.988;2.408;2023-08-07T02:21:34;101233.16;;;18.72;58.82
21290;BME280;10804;48.988;2.408;2023-08-07T02:24:08;101240.06;;;18.75;58.99
21290;BME280;10804;48.988;2.408;2023-08-07T02:26:40;101246.75;;;18.82;58.96
21290;BME280;10804;48.988;2.408;2023-08-07T02:29:09;101221.41;;;18.61;58.90
21290;BME280;10804;48.988;2.408;2023-08-07T02:31:38;101216.59;;;18.52;58.92
21290;BME280;10804;48.988;2.408;2023-08-07T02:34:07;101256.78;;;18.75;58.95
21290;BME280;10804;48.988;2.408;2023-08-07T02:36:35;101253.22;;;18.76;59.05
21290;BME280;10804;48.988;2.408;2023-08-07T02:39:05;101247.16;;;18.74;58.91
21290;BME280;10804;48.988;2.408;2023-08-07T02:41:32;101246.47;;;18.71;59.10
21290;BME280;10804;48.988;2.408;2023-08-07T02:44:00;101243.00;;;18.69;59.14
21290;BME280;10804;48.988;2.408;2023-08-07T02:46:29;101229.28;;;18.62;59.14
21290;BME280;10804;48.988;2.408;2023-08-07T02:48:57;101183.81;;;18.39;58.97
21290;BME280;10804;48.988;2.408;2023-08-07T02:51:26;101209.78;;;18.48;59.07
21290;BME280;10804;48.988;2.408;2023-08-07T02:53:55;101195.31;;;18.38;58.99
21290;BME280;10804;48.988;2.408;2023-08-07T02:56:24;101226.41;;;18.50;58.99
21290;BME280;10804;48.988;2.408;2023-08-07T02:58:52;101195.53;;;18.33;59.27
21290;BME280;10804;48.988;2.408;2023-08-07T03:01:22;101198.09;;;18.35;59.18
21290;BME280;10804;48.988;2.408;2023-08-07T03:03:57;101257.81;;;18.56;59.16
21290;BME280;10804;48.988;2.408;2023-08-07T03:06:30;101244.59;;;18.56;59.14
21290;BME280;10804;48.988;2.408;2023-08-07T03:09:05;101176.31;;;18.13;59.10
21290;BME280;10804;48.988;2.408;2023-08-07T03:11:34;101202.88;;;18.27;59.26
21290;BME280;10804;48.988;2.408;2023-08-07T03:14:03;101199.75;;;18.19;59.37
21290;BME280;10804;48.988;2.408;2023-08-07T03:16:33;101214.38;;;18.26;59.17
21290;BME280;10804;48.988;2.408;2023-08-07T03:19:03;101238.84;;;18.48;59.37
21290;BME280;10804;48.988;2.408;2023-08-07T03:21:32;101240.59;;;18.47;59.34
21290;BME280;10804;48.988;2.408;2023-08-07T03:23:59;101209.09;;;18.26;59.30
21290;BME280;10804;48.988;2.408;2023-08-07T03:26:27;101243.47;;;18.43;59.27
21290;BME280;10804;48.988;2.408;2023-08-07T03:28:56;101241.72;;;18.43;59.41
21290;BME280;10804;48.988;2.408;2023-08-07T03:31:24;101243.53;;;18.41;59.45
21290;BME280;10804;48.988;2.408;2023-08-07T03:33:51;101244.53;;;18.39;59.38
21290;BME280;10804;48.988;2.408;2023-08-07T03:36:21;101241.06;;;18.38;59.36
21290;BME280;10804;48.988;2.408;2023-08-07T03:38:49;101237.09;;;18.30;59.36
21290;BME280;10804;48.988;2.408;2023-08-07T03:41:16;101240.38;;;18.35;59.50
21290;BME280;10804;48.988;2.408;2023-08-07T03:43:43;101249.28;;;18.32;59.52
21290;BME280;10804;48.988;2.408;2023-08-07T03:46:11;101248.41;;;18.32;59.35
21290;BME280;10804;48.988;2.408;2023-08-07T03:48:38;101256.34;;;18.32;59.66
21290;BME280;10804;48.988;2.408;2023-08-07T03:51:07;101246.78;;;18.29;59.48
21290;BME280;10804;48.988;2.408;2023-08-07T03:53:40;101252.94;;;18.30;59.64
21290;BME280;10804;48.988;2.408;2023-08-07T03:56:08;101246.91;;;18.26;59.56
21290;BME280;10804;48.988;2.408;2023-08-07T03:58:35;101254.06;;;18.24;59.48
21290;BME280;10804;48.988;2.408;2023-08-07T04:01:03;101263.75;;;18.24;59.56
21290;BME280;10804;48.988;2.408;2023-08-07T04:03:31;101255.81;;;18.24;59.58
21290;BME280;10804;48.988;2.408;2023-08-07T04:06:00;101251.56;;;18.21;59.70
21290;BME280;10804;48.988;2.408;2023-08-07T04:08:28;101252.47;;;18.20;59.69
21290;BME280;10804;48.988;2.408;2023-08-07T04:11:00;101256.91;;;18.20;59.62
21290;BME280;10804;48.988;2.408;2023-08-07T04:13:30;101258.69;;;18.19;59.63
21290;BME280;10804;48.988;2.408;2023-08-07T04:15:58;101243.38;;;18.09;59.56
21290;BME280;10804;48.988;2.408;2023-08-07T04:18:26;101257.97;;;18.16;59.71
21290;BME280;10804;48.988;2.408;2023-08-07T04:20:54;101259.78;;;18.15;59.64
21290;BME280;10804;48.988;2.408;2023-08-07T04:23:23;101258.16;;;18.13;59.73
21290;BME280;10804;48.988;2.408;2023-08-07T04:25:52;101260.78;;;18.13;59.86
21290;BME280;10804;48.988;2.408;2023-08-07T04:28:21;101272.28;;;18.12;59.89
21290;BME280;10804;48.988;2.408;2023-08-07T04:30:49;101258.53;;;18.05;59.72
21290;BME280;10804;48.988;2.408;2023-08-07T04:33:17;101262.00;;;18.06;59.70
21290;BME280;10804;48.988;2.408;2023-08-07T04:35:44;101272.41;;;18.09;59.81
21290;BME280;10804;48.988;2.408;2023-08-07T04:38:12;101263.81;;;18.05;59.79
21290;BME280;10804;48.988;2.408;2023-08-07T04:40:44;101249.69;;;17.88;59.76
21290;BME280;10804;48.988;2.408;2023-08-07T04:43:12;101285.81;;;18.04;59.72
21290;BME280;10804;48.988;2.408;2023-08-07T04:45:41;101256.69;;;17.89;59.66
21290;BME280;10804;48.988;2.408;2023-08-07T04:48:11;101277.13;;;18.02;59.72
21290;BME280;10804;48.988;2.408;2023-08-07T04:50:38;101282.47;;;18.01;59.68
21290;BME280;10804;48.988;2.408;2023-08-07T04:53:06;101275.81;;;17.94;59.88
21290;BME280;10804;48.988;2.408;2023-08-07T04:55:35;101254.25;;;17.84;59.94
21290;BME280;10804;48.988;2.408;2023-08-07T04:58:02;101245.03;;;17.74;59.81
21290;BME280;10804;48.988;2.408;2023-08-07T05:00:34;101263.94;;;17.84;59.92
21290;BME280;10804;48.988;2.408;2023-08-07T05:03:03;101286.34;;;17.94;59.87
21290;BME280;10804;48.988;2.408;2023-08-07T05:05:31;101291.63;;;17.94;59.81
21290;BME280;10804;48.988;2.408;2023-08-07T05:08:00;101253.97;;;17.72;59.96
21290;BME280;10804;48.988;2.408;2023-08-07T05:10:29;101284.13;;;17.85;59.85
21290;BME280;10804;48.988;2.408;2023-08-07T05:12:59;101277.91;;;17.86;60.10
21290;BME280;10804;48.988;2.408;2023-08-07T05:15:28;101266.25;;;17.73;59.95
21290;BME280;10804;48.988;2.408;2023-08-07T05:17:58;101263.72;;;17.70;59.87
21290;BME280;10804;48.988;2.408;2023-08-07T05:20:28;101287.56;;;17.87;60.09
21290;BME280;10804;48.988;2.408;2023-08-07T05:22:56;101302.47;;;17.88;59.92
21290;BME280;10804;48.988;2.408;2023-08-07T05:25:32;101251.63;;;17.66;59.91
21290;BME280;10804;48.988;2.408;2023-08-07T05:28:01;101291.97;;;17.86;60.10
21290;BME280;10804;48.988;2.408;2023-08-07T05:30:31;101296.38;;;17.86;60.09
21290;BME280;10804;48.988;2.408;2023-08-07T05:32:59;101299.03;;;17.86;60.17
21290;BME280;10804;48.988;2.408;2023-08-07T05:35:30;101293.91;;;17.83;59.97
21290;BME280;10804;48.988;2.408;2023-08-07T05:38:01;101299.03;;;17.86;60.03
21290;BME280;10804;48.988;2.408;2023-08-07T05:40:29;101297.31;;;17.85;60.00
21290;BME280;10804;48.988;2.408;2023-08-07T05:42:56;101292.91;;;17.85;59.98
21290;BME280;10804;48.988;2.408;2023-08-07T05:45:24;101292.03;;;17.85;60.01
21290;BME280;10804;48.988;2.408;2023-08-07T05:47:51;101294.63;;;17.86;60.00
21290;BME280;10804;48.988;2.408;2023-08-07T05:50:19;101299.91;;;17.86;60.09
21290;BME280;10804;48.988;2.408;2023-08-07T05:52:48;101304.31;;;17.86;60.16
21290;BME280;10804;48.988;2.408;2023-08-07T05:55:15;101312.09;;;17.89;60.04
21290;BME280;10804;48.988;2.408;2023-08-07T05:57:43;101302.47;;;17.88;59.91
21290;BME280;10804;48.988;2.408;2023-08-07T06:00:11;101303.31;;;17.88;60.03
21290;BME280;10804;48.988;2.408;2023-08-07T06:02:42;101305.03;;;17.89;59.92
21290;BME280;10804;48.988;2.408;2023-08-07T06:05:10;101308.53;;;17.90;60.00
21290;BME280;10804;48.988;2.408;2023-08-07T06:07:39;101299.13;;;17.84;60.11
21290;BME280;10804;48.988;2.408;2023-08-07T06:10:09;101309.41;;;17.90;60.03
21290;BME280;10804;48.988;2.408;2023-08-07T06:12:36;101311.00;;;17.93;60.09
21290;BME280;10804;48.988;2.408;2023-08-07T06:15:05;101307.47;;;17.94;59.97
21290;BME280;10804;48.988;2.408;2023-08-07T06:17:32;101288.63;;;17.83;59.89
21290;BME280;10804;48.988;2.408;2023-08-07T06:19:59;101305.72;;;17.93;60.07
21290;BME280;10804;48.988;2.408;2023-08-07T06:22:27;101311.72;;;17.96;60.04
21290;BME280;10804;48.988;2.408;2023-08-07T06:24:54;101309.97;;;17.97;59.94
21290;BME280;10804;48.988;2.408;2023-08-07T06:27:23;101303.75;;;17.98;60.08
21290;BME280;10804;48.988;2.408;2023-08-07T06:29:50;101307.47;;;17.94;59.84
21290;BME280;10804;48.988;2.408;2023-08-07T06:32:18;101317.72;;;18.00;59.95
21290;BME280;10804;48.988;2.408;2023-08-07T06:34:45;101311.50;;;18.01;60.01
21290;BME280;10804;48.988;2.408;2023-08-07T06:37:13;101327.22;;;18.04;59.88
21290;BME280;10804;48.988;2.408;2023-08-07T06:39:41;101309.75;;;18.01;60.01
21290;BME280;10804;48.988;2.408;2023-08-07T06:42:08;101326.28;;;18.05;60.00
21290;BME280;10804;48.988;2.408;2023-08-07T06:44:37;101320.03;;;18.07;59.92
21290;BME280;10804;48.988;2.408;2023-08-07T06:47:05;101323.50;;;18.08;59.96
21290;BME280;10804;48.988;2.408;2023-08-07T06:49:32;101326.00;;;18.11;59.89
21290;BME280;10804;48.988;2.408;2023-08-07T06:52:00;101334.88;;;18.10;59.93
21290;BME280;10804;48.988;2.408;2023-08-07T06:54:28;101350.56;;;18.13;59.90
21290;BME280;10804;48.988;2.408;2023-08-07T06:56:55;101342.69;;;18.11;59.91
21290;BME280;10804;48.988;2.408;2023-08-07T06:59:22;101346.97;;;18.14;60.08
21290;BME280;10804;48.988;2.408;2023-08-07T07:01:52;101348.56;;;18.18;59.93
21290;BME280;10804;48.988;2.408;2023-08-07T07:04:19;101341.56;;;18.17;59.84
21290;BME280;10804;48.988;2.408;2023-08-07T07:06:47;101361.59;;;18.21;59.92
21290;BME280;10804;48.988;2.408;2023-08-07T07:09:14;101365.03;;;18.23;59.94
21290;BME280;10804;48.988;2.408;2023-08-07T07:11:43;101358.25;;;18.17;59.90
21290;BME280;10804;48.988;2.408;2023-08-07T07:14:10;101364.81;;;18.27;59.87
21290;BME280;10804;48.988;2.408;2023-08-07T07:16:38;101372.66;;;18.29;59.93
21290;BME280;10804;48.988;2.408;2023-08-07T07:19:06;101370.84;;;18.31;59.93
21290;BME280;10804;48.988;2.408;2023-08-07T07:21:35;101374.28;;;18.33;59.99
21290;BME280;10804;48.988;2.408;2023-08-07T07:24:03;101371.47;;;18.36;59.92
21290;BME280;10804;48.988;2.408;2023-08-07T07:26:30;101370.56;;;18.37;60.00
21290;BME280;10804;48.988;2.408;2023-08-07T07:28:57;101363.41;;;18.39;60.02
21290;BME280;10804;48.988;2.408;2023-08-07T07:31:25;101367.84;;;18.38;59.94
21290;BME280;10804;48.988;2.408;2023-08-07T07:33:52;101357.28;;;18.38;59.97
21290;BME280;10804;48.988;2.408;2023-08-07T07:36:21;101364.75;;;18.47;59.97
21290;BME280;10804;48.988;2.408;2023-08-07T07:38:49;101366.53;;;18.47;59.95
21290;BME280;10804;48.988;2.408;2023-08-07T07:41:16;101357.00;;;18.44;60.07
21290;BME280;10804;48.988;2.408;2023-08-07T07:43:44;101369.81;;;18.52;59.92
21290;BME280;10804;48.988;2.408;2023-08-07T07:46:12;101374.81;;;18.58;59.85
21290;BME280;10804;48.988;2.408;2023-08-07T07:48:39;101378.25;;;18.60;59.90
21290;BME280;10804;48.988;2.408;2023-08-07T07:51:06;101357.53;;;18.51;60.00
21290;BME280;10804;48.988;2.408;2023-08-07T07:53:36;101371.78;;;18.65;59.96
21290;BME280;10804;48.988;2.408;2023-08-07T07:56:03;101369.09;;;18.67;59.93
21290;BME280;10804;48.988;2.408;2023-08-07T07:58:30;101378.59;;;18.71;60.00
21290;BME280;10804;48.988;2.408;2023-08-07T08:00:58;101366.09;;;18.74;59.95
21290;BME280;10804;48.988;2.408;2023-08-07T08:03:25;101373.09;;;18.75;59.94
21290;BME280;10804;48.988;2.408;2023-08-07T08:05:53;101372.91;;;18.78;59.96
21290;BME280;10804;48.988;2.408;2023-08-07T08:08:20;101377.19;;;18.81;60.00
21290;BME280;10804;48.988;2.408;2023-08-07T08:10:49;101384.97;;;18.84;60.10
21290;BME280;10804;48.988;2.408;2023-08-07T08:13:17;101388.47;;;18.84;60.15
21290;BME280;10804;48.988;2.408;2023-08-07T08:15:45;101391.75;;;18.89;60.06
21290;BME280;10804;48.988;2.408;2023-08-07T08:18:12;101388.09;;;18.92;60.12
21290;BME280;10804;48.988;2.408;2023-08-07T08:20:40;101384.50;;;18.93;60.18
21290;BME280;10804;48.988;2.408;2023-08-07T08:23:07;101397.44;;;18.99;60.30
21290;BME280;10804;48.988;2.408;2023-08-07T08:25:35;101397.31;;;19.02;60.38
21290;BME280;10804;48.988;2.408;2023-08-07T08:28:03;101397.31;;;19.02;60.28
21290;BME280;10804;48.988;2.408;2023-08-07T08:30:31;101396.97;;;19.08;60.50
21290;BME280;10804;48.988;2.408;2023-08-07T08:32:58;101390.63;;;19.12;60.70
21290;BME280;10804;48.988;2.408;2023-08-07T08:35:25;101389.50;;;19.16;60.72
21290;BME280;10804;48.988;2.408;2023-08-07T08:37:53;101398.25;;;19.18;60.83
21290;BME280;10804;48.988;2.408;2023-08-07T08:40:21;101395.47;;;19.21;60.74
21290;BME280;10804;48.988;2.408;2023-08-07T08:42:48;101387.66;;;19.18;60.94
21290;BME280;10804;48.988;2.408;2023-08-07T08:45:18;101399.50;;;19.28;60.95
21290;BME280;10804;48.988;2.408;2023-08-07T08:47:49;101400.28;;;19.30;61.25
21290;BME280;10804;48.988;2.408;2023-08-07T08:50:18;101393.91;;;19.34;61.10
21290;BME280;10804;48.988;2.408;2023-08-07T08:52:46;101395.47;;;19.38;61.19
21290;BME280;10804;48.988;2.408;2023-08-07T08:55:13;101394.53;;;19.39;61.16
21290;BME280;10804;48.988;2.408;2023-08-07T08:57:41;101392.56;;;19.42;61.21
21290;BME280;10804;48.988;2.408;2023-08-07T09:00:10;101382.69;;;19.46;61.19
21290;BME280;10804;48.988;2.408;2023-08-07T09:02:46;101377.25;;;19.49;61.28
21290;BME280;10804;48.988;2.408;2023-08-07T09:05:14;101378.78;;;19.53;61.29
21290;BME280;10804;48.988;2.408;2023-08-07T09:07:42;101387.53;;;19.55;61.54
21290;BME280;10804;48.988;2.408;2023-08-07T09:10:13;101379.41;;;19.58;61.40
21290;BME280;10804;48.988;2.408;2023-08-07T09:12:42;101387.19;;;19.61;61.42
21290;BME280;10804;48.988;2.408;2023-08-07T09:15:15;101387.06;;;19.64;61.49
21290;BME280;10804;48.988;2.408;2023-08-07T09:17:45;101386.03;;;19.66;61.61
21290;BME280;10804;48.988;2.408;2023-08-07T09:20:13;101383.16;;;19.71;61.63
21290;BME280;10804;48.988;2.408;2023-08-07T09:22:41;101390.91;;;19.74;61.57
21290;BME280;10804;48.988;2.408;2023-08-07T09:25:09;101401.25;;;19.78;61.48
21290;BME280;10804;48.988;2.408;2023-08-07T09:27:37;101397.84;;;19.76;61.80
21290;BME280;10804;48.988;2.408;2023-08-07T09:30:05;101393.06;;;19.83;61.65
21290;BME280;10804;48.988;2.408;2023-08-07T09:32:34;101392.94;;;19.86;61.78
21290;BME280;10804;48.988;2.408;2023-08-07T09:35:04;101381.41;;;19.87;61.76
21290;BME280;10804;48.988;2.408;2023-08-07T09:37:32;101395.16;;;19.93;61.78
21290;BME280;10804;48.988;2.408;2023-08-07T09:40:00;101390.56;;;19.97;61.83
21290;BME280;10804;48.988;2.408;2023-08-07T09:42:30;101392.19;;;19.99;61.77
21290;BME280;10804;48.988;2.408;2023-08-07T09:45:00;101388.66;;;19.98;61.73
21290;BME280;10804;48.988;2.408;2023-08-07T09:47:27;101394.38;;;20.08;61.86
21290;BME280;10804;48.988;2.408;2023-08-07T09:49:55;101401.28;;;20.11;61.86
21290;BME280;10804;48.988;2.408;2023-08-07T09:52:24;101391.47;;;20.13;62.04
21290;BME280;10804;48.988;2.408;2023-08-07T09:54:55;101396.63;;;20.16;61.86
21290;BME280;10804;48.988;2.408;2023-08-07T09:57:23;101396.63;;;20.16;61.75
21290;BME280;10804;48.988;2.408;2023-08-07T09:59:51;101391.81;;;20.22;61.85
21290;BME280;10804;48.988;2.408;2023-08-07T10:02:19;101391.75;;;20.23;61.80
21290;BME280;10804;48.988;2.408;2023-08-07T10:04:48;101393.28;;;20.27;61.78
21290;BME280;10804;48.988;2.408;2023-08-07T10:07:17;101387.22;;;20.25;61.67
21290;BME280;10804;48.988;2.408;2023-08-07T10:09:46;101376.75;;;20.22;61.75
21290;BME280;10804;48.988;2.408;2023-08-07T10:12:16;101394.56;;;20.36;61.66
21290;BME280;10804;48.988;2.408;2023-08-07T10:14:45;101380.31;;;20.38;61.70
21290;BME280;10804;48.988;2.408;2023-08-07T10:17:13;101376.72;;;20.39;61.61
21290;BME280;10804;48.988;2.408;2023-08-07T10:19:40;101365.50;;;20.34;61.72
21290;BME280;10804;48.988;2.408;2023-08-07T10:22:08;101386.88;;;20.47;61.69
21290;BME280;10804;48.988;2.408;2023-08-07T10:24:38;101375.25;;;20.49;61.66
21290;BME280;10804;48.988;2.408;2023-08-07T10:27:09;101378.66;;;20.51;61.65
21290;BME280;10804;48.988;2.408;2023-08-07T10:29:39;101372.59;;;20.49;61.55
21290;BME280;10804;48.988;2.408;2023-08-07T10:32:07;101367.72;;;20.57;61.64
21290;BME280;10804;48.988;2.408;2023-08-07T10:34:35;101377.22;;;20.61;61.66
21290;BME280;10804;48.988;2.408;2023-08-07T10:37:06;101367.72;;;20.57;61.63
21290;BME280;10804;48.988;2.408;2023-08-07T10:40:02;101374.31;;;20.66;61.62
21290;BME280;10804;48.988;2.408;2023-08-07T10:42:56;101377.66;;;20.69;61.58
21290;BME280;10804;48.988;2.408;2023-08-07T10:45:25;101373.94;;;20.72;61.60
21290;BME280;10804;48.988;2.408;2023-08-07T10:48:06;101387.88;;;20.75;61.62
21290;BME280;10804;48.988;2.408;2023-08-07T10:50:34;101377.13;;;20.78;61.63
21290;BME280;10804;48.988;2.408;2023-08-07T10:53:02;101371.81;;;20.78;61.58
21290;BME280;10804;48.988;2.408;2023-08-07T10:55:43;101364.63;;;20.80;61.61
21290;BME280;10804;48.988;2.408;2023-08-07T10:58:22;101372.19;;;20.88;61.47
21290;BME280;10804;48.988;2.408;2023-08-07T11:00:51;101364.09;;;20.89;61.59
21290;BME280;10804;48.988;2.408;2023-08-07T11:03:28;101368.31;;;20.93;61.49
21290;BME280;10804;48.988;2.408;2023-08-07T11:05:57;101369.94;;;20.96;61.43
21290;BME280;10804;48.988;2.408;2023-08-07T11:08:25;101367.97;;;20.99;61.46
21290;BME280;10804;48.988;2.408;2023-08-07T11:10:53;101360.25;;;20.95;61.41
21290;BME280;10804;48.988;2.408;2023-08-07T11:13:22;101364.63;;;20.96;61.43
21290;BME280;10804;48.988;2.408;2023-08-07T11:15:49;101361.78;;;20.99;61.44
21290;BME280;10804;48.988;2.408;2023-08-07T11:18:18;101362.47;;;21.02;61.34
21290;BME280;10804;48.988;2.408;2023-08-07T11:20:45;101359.47;;;21.08;61.35
21290;BME280;10804;48.988;2.408;2023-08-07T11:23:14;101353.13;;;21.11;61.43
21290;BME280;10804;48.988;2.408;2023-08-07T11:25:41;101350.19;;;21.15;61.24
21290;BME280;10804;48.988;2.408;2023-08-07T11:28:09;101344.88;;;21.15;61.18
21290;BME280;10804;48.988;2.408;2023-08-07T11:30:37;101338.44;;;21.19;61.37
21290;BME280;10804;48.988;2.408;2023-08-07T11:33:05;101340.72;;;21.25;61.16
21290;BME280;10804;48.988;2.408;2023-08-07T11:35:33;101342.44;;;21.26;61.36
21290;BME280;10804;48.988;2.408;2023-08-07T11:38:00;101345.84;;;21.28;61.32
21290;BME280;10804;48.988;2.408;2023-08-07T11:40:27;101334.13;;;21.32;61.06
21290;BME280;10804;48.988;2.408;2023-08-07T11:42:55;101325.13;;;21.35;61.25
21290;BME280;10804;48.988;2.408;2023-08-07T11:45:22;101327.56;;;21.38;61.12
21290;BME280;10804;48.988;2.408;2023-08-07T11:47:51;101335.25;;;21.42;61.02
21290;BME280;10804;48.988;2.408;2023-08-07T11:50:22;101325.59;;;21.41;60.92
21290;BME280;10804;48.988;2.408;2023-08-07T11:52:49;101321.63;;;21.48;61.13
21290;BME280;10804;48.988;2.408;2023-08-07T11:55:17;101325.91;;;21.51;61.03
21290;BME280;10804;48.988;2.408;2023-08-07T11:57:46;101328.25;;;21.55;60.87
21290;BME280;10804;48.988;2.408;2023-08-07T12:00:13;101313.00;;;21.59;60.90
21290;BME280;10804;48.988;2.408;2023-08-07T12:02:42;101313.66;;;21.62;60.91
21290;BME280;10804;48.988;2.408;2023-08-07T12:05:11;101310.84;;;21.65;60.79
21290;BME280;10804;48.988;2.408;2023-08-07T12:07:39;101307.91;;;21.70;61.03
21290;BME280;10804;48.988;2.408;2023-08-07T12:10:08;101302.41;;;21.73;60.88
21290;BME280;10804;48.988;2.408;2023-08-07T12:12:36;101296.97;;;21.74;60.73
21290;BME280;10804;48.988;2.408;2023-08-07T12:15:06;101292.34;;;21.78;60.77
21290;BME280;10804;48.988;2.408;2023-08-07T12:17:35;101292.03;;;21.82;60.61
21290;BME280;10804;48.988;2.408;2023-08-07T12:20:04;101292.81;;;21.84;60.65
21290;BME280;10804;48.988;2.408;2023-08-07T12:22:35;101295.94;;;21.91;60.58
21290;BME280;10804;48.988;2.408;2023-08-07T12:25:03;101286.94;;;21.93;60.66
21290;BME280;10804;48.988;2.408;2023-08-07T12:27:30;101289.38;;;21.96;60.58
21290;BME280;10804;48.988;2.408;2023-08-07T12:29:58;101275.56;;;21.91;60.51
21290;BME280;10804;48.988;2.408;2023-08-07T12:32:25;101291.66;;;22.02;60.51
21290;BME280;10804;48.988;2.408;2023-08-07T12:34:52;101293.06;;;22.08;60.35
21290;BME280;10804;48.988;2.408;2023-08-07T12:37:20;101284.91;;;22.11;60.31
21290;BME280;10804;48.988;2.408;2023-08-07T12:39:50;101279.38;;;22.14;60.46
21290;BME280;10804;48.988;2.408;2023-08-07T12:42:17;101283.56;;;22.18;60.04
21290;BME280;10804;48.988;2.408;2023-08-07T12:44:44;101278.91;;;22.21;60.29
21290;BME280;10804;48.988;2.408;2023-08-07T12:47:12;101280.13;;;22.16;60.04
21290;BME280;10804;48.988;2.408;2023-08-07T12:49:39;101287.41;;;22.26;60.15
21290;BME280;10804;48.988;2.408;2023-08-07T12:52:07;101296.03;;;22.30;60.17
21290;BME280;10804;48.988;2.408;2023-08-07T12:54:34;101283.50;;;22.32;59.94
21290;BME280;10804;48.988;2.408;2023-08-07T12:57:03;101288.63;;;22.35;60.00